Time;durP1;ratioP1;P1;durP2;ratioP2;P2;SDS_P1;SDS_P2;PMS_P1;PMS_P2;Temp;Humidity;BMP_temperature;BMP_pressure;BME280_temperature;BME280_humidity;BME280_pressure;Samples;Min_cycle;Max_cycle;Signal;HPM_P1;HPM_P2
2023/05/13 00:00:24;;;;;;;5.00;4.50;;;;;;;16.88;56.55;98716.78;6976359;28;20202;-84
2023/05/13 00:03:46;;;;;;;4.47;4.07;;;;;;;16.63;56.71;98715.56;6975811;28;20695;-84
2023/05/13 00:07:08;;;;;;;7.97;4.40;;;;;;;16.13;57.76;98720.00;6976263;28;20655;-84
2023/05/13 00:10:29;;;;;;;3.90;3.60;;;;;;;16.20;58.44;98699.75;6976351;28;20290;-84
2023/05/13 00:13:52;;;;;;;5.83;4.87;;;;;;;16.24;58.00;98719.16;6973279;28;20621;-84
2023/05/13 00:17:14;;;;;;;6.37;5.03;;;;;;;16.09;58.76;98706.06;6973591;28;20232;-84
2023/05/13 00:20:35;;;;;;;4.90;4.50;;;;;;;16.43;58.33;98720.63;6974131;28;20234;-84
2023/05/13 00:23:57;;;;;;;4.33;3.93;;;;;;;16.35;57.79;98691.88;6973007;28;20275;-84
2023/05/13 00:27:18;;;;;;;6.47;4.07;;;;;;;16.23;58.40;98706.63;6974294;28;20355;-84
2023/05/13 00:30:42;;;;;;;4.63;4.10;;;;;;;16.30;58.18;98731.78;6975332;28;20671;-84
2023/05/13 00:34:04;;;;;;;5.97;4.10;;;;;;;16.28;58.55;98732.00;6974953;28;20203;-84
2023/05/13 00:37:26;;;;;;;4.00;3.70;;;;;;;16.15;58.22;98718.72;6975258;28;20285;-84
2023/05/13 00:40:48;;;;;;;4.27;3.87;;;;;;;16.03;58.91;98723.38;6975660;28;20214;-84
2023/05/13 00:44:10;;;;;;;5.70;3.80;;;;;;;16.14;58.80;98719.78;6975079;28;20719;-84
2023/05/13 00:47:33;;;;;;;6.70;4.10;;;;;;;15.25;60.03;98643.41;6974649;28;20224;-84
2023/05/13 00:50:55;;;;;;;5.53;3.27;;;;;;;16.24;58.83;98722.72;6974855;28;20238;-84
2023/05/13 00:54:16;;;;;;;4.03;3.50;;;;;;;16.24;58.82;98719.16;6972942;28;20214;-84
2023/05/13 00:57:39;;;;;;;5.27;3.77;;;;;;;16.53;57.79;98708.03;6974258;28;20236;-84
2023/05/13 01:01:08;;;;;;;5.00;3.90;;;;;;;16.30;57.90;98710.00;6976992;28;20209;-85
2023/05/13 01:04:37;;;;;;;3.97;3.67;;;;;;;16.24;57.72;98716.44;6986380;28;20206;-85
2023/05/13 01:08:03;;;;;;;3.53;3.27;;;;;;;15.98;58.63;98722.44;6974009;28;20302;-85
2023/05/13 01:11:28;;;;;;;3.70;3.40;;;;;;;15.56;58.82;98688.38;6974584;28;20251;-84
2023/05/13 01:14:53;;;;;;;3.60;3.30;;;;;;;15.94;58.44;98699.50;6973367;28;20258;-84
2023/05/13 01:18:15;;;;;;;6.13;4.10;;;;;;;16.05;57.86;98714.97;6974039;28;20233;-85
2023/05/13 01:21:38;;;;;;;3.80;3.50;;;;;;;15.52;58.85;98706.25;6974352;28;20712;-84
2023/05/13 01:25:00;;;;;;;3.73;3.43;;;;;;;15.44;59.96;98714.75;6972984;28;20265;-84
2023/05/13 01:28:22;;;;;;;3.60;3.30;;;;;;;15.60;58.78;98725.72;6973747;28;20686;-84
2023/05/13 01:31:44;;;;;;;3.60;3.30;;;;;;;16.02;57.44;98729.03;6972858;28;20349;-84
2023/05/13 01:35:06;;;;;;;3.80;3.50;;;;;;;15.58;58.12;98727.84;6973421;28;20215;-84
2023/05/13 01:38:30;;;;;;;3.73;3.43;;;;;;;15.56;58.18;98720.97;6973617;28;20260;-84
2023/05/13 01:41:52;;;;;;;3.30;3.10;;;;;;;16.01;57.04;98725.50;6973248;28;20299;-85
2023/05/13 01:45:14;;;;;;;4.33;3.10;;;;;;;16.08;56.37;98737.06;6973413;28;20315;-84
2023/05/13 01:48:36;;;;;;;3.20;3.00;;;;;;;16.32;56.11;98733.19;6973738;28;20665;-85
2023/05/13 01:51:57;;;;;;;3.47;3.17;;;;;;;16.26;55.93;98723.28;6972637;28;20221;-84
2023/05/13 01:55:26;;;;;;;3.33;3.00;;;;;;;16.52;55.31;98722.69;6972311;28;20314;-84
2023/05/13 01:58:48;;;;;;;4.90;3.00;;;;;;;16.42;55.45;98722.53;6972946;28;20365;-84
2023/05/13 02:02:09;;;;;;;3.57;3.27;;;;;;;16.27;55.50;98696.91;6972501;28;20732;-85
2023/05/13 02:05:32;;;;;;;3.80;3.40;;;;;;;16.49;55.84;98731.38;6973447;28;20688;-84
2023/05/13 02:08:53;;;;;;;3.53;3.10;;;;;;;16.69;54.43;98725.47;6973244;28;20576;-84
2023/05/13 02:12:16;;;;;;;5.40;3.30;;;;;;;16.41;55.06;98701.84;6972770;28;20217;-84
2023/05/13 02:15:37;;;;;;;3.57;3.27;;;;;;;15.24;57.74;98722.41;6973190;28;20227;-84
2023/05/13 02:18:59;;;;;;;3.33;3.03;;;;;;;15.66;57.22;98729.38;6972945;28;20722;-84
2023/05/13 02:22:20;;;;;;;4.17;3.20;;;;;;;15.98;56.83;98741.47;6972437;28;20209;-83
2023/05/13 02:25:42;;;;;;;3.30;3.03;;;;;;;16.24;55.95;98732.75;6973173;28;20228;-84
2023/05/13 02:29:05;;;;;;;3.30;3.00;;;;;;;16.20;55.22;98679.88;6972606;28;20280;-84
2023/05/13 02:32:26;;;;;;;3.67;3.27;;;;;;;16.42;55.52;98732.56;6972086;28;20292;-84
2023/05/13 02:35:48;;;;;;;3.17;2.87;;;;;;;16.27;54.64;98702.34;6972834;28;20372;-84
2023/05/13 02:39:09;;;;;;;3.37;2.80;;;;;;;16.28;55.38;98733.94;6978507;28;20292;-84
2023/05/13 02:42:31;;;;;;;3.63;3.33;;;;;;;16.26;55.38;98736.03;6978852;28;20676;-85
2023/05/13 02:45:54;;;;;;;3.50;3.20;;;;;;;16.27;54.98;98729.56;6978428;28;20256;-85
2023/05/13 02:49:15;;;;;;;3.30;3.00;;;;;;;16.29;54.43;98741.00;6978625;28;20241;-84
2023/05/13 02:52:38;;;;;;;4.40;3.10;;;;;;;15.66;56.22;98735.63;6977813;28;20667;-84
2023/05/13 02:56:00;;;;;;;7.40;3.40;;;;;;;14.58;58.50;98732.72;6976647;28;20262;-84
2023/05/13 02:59:22;;;;;;;5.00;3.63;;;;;;;15.07;58.06;98727.72;6978215;28;20227;-84
2023/05/13 03:02:44;;;;;;;3.77;2.93;;;;;;;14.95;57.60;98726.06;6977205;28;20355;-84
2023/05/13 03:06:07;;;;;;;3.43;3.23;;;;;;;14.50;58.53;98717.59;6978338;28;20345;-84
2023/05/13 03:09:29;;;;;;;4.93;3.30;;;;;;;13.44;60.07;98625.44;6977818;28;20294;-82
2023/05/13 03:12:51;;;;;;;3.90;3.50;;;;;;;14.48;59.18;98744.16;6984953;28;20211;-83
2023/05/13 03:16:12;;;;;;;4.70;3.80;;;;;;;14.94;58.25;98736.09;6986196;28;20220;-84
2023/05/13 03:19:36;;;;;;;5.40;3.27;;;;;;;15.70;56.32;98731.34;6949309;28;20232;-84
2023/05/13 03:22:57;;;;;;;4.10;3.70;;;;;;;15.45;55.37;98683.81;6948532;28;20550;-84
2023/05/13 03:26:20;;;;;;;3.80;3.43;;;;;;;15.89;54.75;98718.44;6948745;28;20285;-84
2023/05/13 03:29:41;;;;;;;3.83;3.50;;;;;;;15.73;54.82;98667.53;6950261;28;20215;-85
2023/05/13 03:33:03;;;;;;;4.00;3.40;;;;;;;16.06;54.92;98754.69;6949195;28;20348;-84
2023/05/13 03:36:26;;;;;;;3.50;3.20;;;;;;;15.81;55.06;98744.09;6951268;28;20231;-84
2023/05/13 03:39:47;;;;;;;3.90;3.43;;;;;;;15.82;55.37;98734.88;6952722;28;20373;-83
2023/05/13 03:43:09;;;;;;;4.90;3.63;;;;;;;15.94;54.97;98746.56;6953942;28;20285;-85
2023/05/13 03:46:30;;;;;;;3.57;3.27;;;;;;;15.89;54.11;98749.19;6955149;28;20318;-84
2023/05/13 03:49:52;;;;;;;3.83;3.53;;;;;;;15.58;55.54;98749.56;6954773;28;20427;-84
2023/05/13 03:53:15;;;;;;;4.17;3.17;;;;;;;15.45;55.34;98754.47;6954284;28;20265;-84
2023/05/13 03:56:37;;;;;;;3.23;3.03;;;;;;;15.84;55.40;98762.66;6953423;28;20286;-84
2023/05/13 03:59:59;;;;;;;4.43;3.33;;;;;;;15.58;54.95;98729.75;6954227;28;20557;-84
2023/05/13 04:03:20;;;;;;;3.77;3.40;;;;;;;15.48;56.04;98762.97;6956368;28;20216;-84
2023/05/13 04:06:42;;;;;;;4.13;3.47;;;;;;;15.73;55.19;98765.41;6955605;28;20235;-84
2023/05/13 04:10:06;;;;;;;4.03;3.73;;;;;;;15.76;55.02;98751.34;6954318;28;20210;-84
2023/05/13 04:13:27;;;;;;;3.70;3.40;;;;;;;15.44;55.61;98753.63;6953230;28;20218;-84
2023/05/13 04:16:49;;;;;;;4.90;3.03;;;;;;;15.17;56.95;98770.59;6953880;28;20310;-84
2023/05/13 04:20:11;;;;;;;4.37;3.50;;;;;;;14.72;58.49;98767.56;6955262;28;20620;-85
2023/05/13 04:23:32;;;;;;;3.67;3.37;;;;;;;15.17;56.63;98741.53;6954720;28;20290;-84
2023/05/13 04:26:55;;;;;;;3.57;3.27;;;;;;;15.07;57.55;98782.03;6955310;28;20374;-84
2023/05/13 04:30:17;;;;;;;3.63;3.30;;;;;;;15.41;56.68;98773.13;6955279;28;20298;-84
2023/05/13 04:33:38;;;;;;;4.57;3.27;;;;;;;15.75;55.79;98777.69;6955017;28;20467;-84
2023/05/13 04:37:00;;;;;;;3.70;3.40;;;;;;;15.45;55.71;98747.13;6956154;28;20328;-84
2023/05/13 04:40:21;;;;;;;4.17;3.87;;;;;;;15.32;57.01;98760.94;6964938;28;20267;-84
2023/05/13 04:43:44;;;;;;;3.87;3.57;;;;;;;15.72;55.39;98788.22;6955391;28;20305;-86
2023/05/13 04:47:06;;;;;;;4.50;3.60;;;;;;;14.77;58.33;98762.28;6958504;28;20220;-86
2023/05/13 04:50:28;;;;;;;4.00;3.70;;;;;;;15.42;57.13;98801.94;6966933;28;20224;-86
2023/05/13 04:53:51;;;;;;;4.27;3.77;;;;;;;15.94;55.12;98795.53;6963954;28;20217;-86
2023/05/13 04:57:13;;;;;;;3.77;3.47;;;;;;;16.15;54.23;98796.78;6976317;28;20264;-86
2023/05/13 05:00:36;;;;;;;4.27;3.33;;;;;;;16.24;54.27;98790.72;6977092;28;20602;-85
2023/05/13 05:03:58;;;;;;;3.97;3.67;;;;;;;16.21;53.69;98798.53;6977527;28;20284;-85
2023/05/13 05:07:19;;;;;;;3.67;3.37;;;;;;;15.55;54.11;98776.41;6977412;28;20229;-86
2023/05/13 05:10:41;;;;;;;3.87;3.57;;;;;;;16.00;53.88;98791.00;6952875;28;20342;-86
2023/05/13 05:14:02;;;;;;;3.80;3.50;;;;;;;16.27;52.93;98792.13;6949221;28;20216;-86
2023/05/13 05:17:26;;;;;;;3.57;3.27;;;;;;;16.03;51.83;98736.13;6950354;28;20318;-86
2023/05/13 05:20:48;;;;;;;3.77;3.40;;;;;;;16.22;53.19;98806.44;6950679;28;20240;-86
2023/05/13 05:24:09;;;;;;;4.83;4.10;;;;;;;16.06;52.94;98809.09;6961088;28;20213;-85
2023/05/13 05:27:31;;;;;;;3.70;3.40;;;;;;;16.38;51.89;98821.16;6964739;28;20267;-86
2023/05/13 05:30:52;;;;;;;4.40;4.00;;;;;;;16.71;52.35;98816.72;6948925;28;20303;-86
2023/05/13 05:34:15;;;;;;;6.77;4.03;;;;;;;16.97;51.47;98827.00;6970171;28;20300;-86
2023/05/13 05:37:36;;;;;;;3.80;3.50;;;;;;;16.63;52.13;98811.66;6976047;28;20320;-86
2023/05/13 05:40:58;;;;;;;3.40;3.20;;;;;;;16.64;52.36;98813.28;6974432;28;20358;-84
2023/05/13 05:44:19;;;;;;;4.17;3.30;;;;;;;16.88;51.45;98817.56;6976237;28;20652;-84
2023/05/13 05:47:41;;;;;;;4.20;3.57;;;;;;;16.19;52.33;98777.00;6975945;28;20228;-86
2023/05/13 05:51:05;;;;;;;4.37;3.87;;;;;;;16.37;52.68;98822.25;6976776;28;20220;-86
2023/05/13 05:54:27;;;;;;;4.43;3.80;;;;;;;16.61;52.54;98838.28;6975129;28;20350;-87
2023/05/13 05:57:48;;;;;;;4.80;4.40;;;;;;;16.25;52.52;98830.44;6976924;28;20269;-84
2023/05/13 06:01:10;;;;;;;3.80;3.50;;;;;;;16.61;53.01;98840.19;6977224;28;20226;-84
2023/05/13 06:04:31;;;;;;;5.90;3.93;;;;;;;16.76;51.40;98833.13;6976229;28;20238;-86
2023/05/13 06:07:54;;;;;;;4.50;3.83;;;;;;;16.56;51.59;98845.50;6972615;28;20648;-87
2023/05/13 06:11:16;;;;;;;4.23;3.83;;;;;;;16.59;52.40;98826.00;6950949;28;20263;-87
2023/05/13 06:14:37;;;;;;;3.70;3.40;;;;;;;16.93;51.82;98835.91;6953944;28;20292;-87
2023/05/13 06:18:00;;;;;;;3.80;3.50;;;;;;;17.04;51.06;98800.41;6977861;28;20266;-83
2023/05/13 06:21:22;;;;;;;3.90;3.60;;;;;;;17.04;49.73;98759.56;6969442;28;20216;-85
2023/05/13 06:24:44;;;;;;;3.87;3.57;;;;;;;16.62;51.05;98847.28;6981397;28;20236;-88
2023/05/13 06:28:07;;;;;;;4.37;3.77;;;;;;;16.85;51.77;98837.13;6981038;28;20242;-86
2023/05/13 06:31:28;;;;;;;5.53;3.70;;;;;;;17.31;49.95;98849.66;6981035;28;20662;-85
2023/05/13 06:34:51;;;;;;;3.90;3.60;;;;;;;15.99;52.93;98822.81;6980914;28;20298;-86
2023/05/13 06:38:13;;;;;;;4.93;3.93;;;;;;;16.13;53.28;98848.69;6980340;28;20240;-86
2023/05/13 06:41:36;;;;;;;4.63;3.70;;;;;;;16.45;52.67;98844.50;6981428;28;20212;-87
2023/05/13 06:44:57;;;;;;;4.10;3.80;;;;;;;16.06;52.88;98828.97;6973252;28;20239;-87
2023/05/13 06:48:19;;;;;;;4.40;3.67;;;;;;;17.18;51.78;98850.81;6951907;28;20259;-87
2023/05/13 06:51:40;;;;;;;4.17;3.37;;;;;;;17.03;51.34;98842.34;6968793;28;20280;-88
2023/05/13 06:55:02;;;;;;;4.30;3.90;;;;;;;17.21;50.83;98849.50;6980206;28;20709;-87
2023/05/13 06:58:32;;;;;;;4.33;3.87;;;;;;;17.30;51.20;98851.56;6979057;28;20230;-85
2023/05/13 07:01:54;;;;;;;4.40;3.20;;;;;;;16.51;51.64;98813.59;6953001;28;20197;-88
2023/05/13 07:05:15;;;;;;;4.33;3.60;;;;;;;17.22;51.16;98849.22;6964318;28;20244;-85
2023/05/13 07:08:37;;;;;;;4.17;3.87;;;;;;;17.10;50.33;98840.28;6971494;28;20250;-86
2023/05/13 07:11:59;;;;;;;4.23;3.83;;;;;;;17.17;50.13;98793.81;6960369;28;20216;-85
2023/05/13 07:15:22;;;;;;;5.10;4.13;;;;;;;16.99;51.98;98854.81;6959882;28;20224;-84
2023/05/13 07:18:44;;;;;;;4.43;4.10;;;;;;;17.40;50.23;98843.56;6981312;28;20258;-85
2023/05/13 07:22:06;;;;;;;4.10;3.70;;;;;;;17.36;49.84;98808.84;6979995;28;20562;-84
2023/05/13 07:25:28;;;;;;;5.17;3.67;;;;;;;17.12;50.16;98808.19;6979990;28;20225;-85
2023/05/13 07:28:49;;;;;;;4.00;3.60;;;;;;;17.14;49.93;98772.50;6980651;28;20219;-84
2023/05/13 07:32:12;;;;;;;4.73;3.80;;;;;;;17.89;49.25;98828.25;6980851;28;20208;-84
2023/05/13 07:35:34;;;;;;;4.20;3.80;;;;;;;17.20;48.71;98750.56;7004926;28;20216;-86
2023/05/13 07:38:56;;;;;;;4.83;4.13;;;;;;;15.50;54.12;98795.31;6988256;28;20254;-83
2023/05/13 07:42:18;;;;;;;6.10;4.00;;;;;;;17.25;51.90;98853.34;6974776;28;20205;-82
2023/05/13 07:45:41;;;;;;;4.33;3.87;;;;;;;17.37;50.66;98854.94;6952117;28;20229;-84
2023/05/13 07:49:05;;;;;;;5.07;4.40;;;;;;;17.72;49.65;98846.53;6965468;28;20216;-84
2023/05/13 07:52:27;;;;;;;6.93;4.63;;;;;;;17.24;50.47;98855.28;6957229;28;20202;-85
2023/05/13 07:55:48;;;;;;;4.33;3.93;;;;;;;17.42;50.30;98816.91;6968035;28;20746;-85
2023/05/13 07:59:10;;;;;;;3.90;3.60;;;;;;;17.75;50.95;98854.22;6954716;28;20307;-82
2023/05/13 08:02:33;;;;;;;4.00;3.70;;;;;;;17.71;50.11;98809.44;6973554;28;20527;-83
2023/05/13 08:05:57;;;;;;;4.97;3.77;;;;;;;17.73;50.08;98832.66;6954727;28;20226;-82
2023/05/13 08:09:18;;;;;;;4.13;3.73;;;;;;;17.03;50.08;98776.13;6980003;28;20250;-83
2023/05/13 08:12:40;;;;;;;3.77;3.47;;;;;;;16.90;50.94;98785.47;6966882;28;20205;-84
2023/05/13 08:16:02;;;;;;;4.13;3.83;;;;;;;17.38;50.32;98843.00;6950794;28;20724;-84
2023/05/13 08:19:23;;;;;;;6.90;4.40;;;;;;;17.58;50.90;98867.84;6951422;28;20258;-84
2023/05/13 08:22:46;;;;;;;5.33;3.67;;;;;;;17.55;50.15;98862.06;6950824;28;20642;-83
2023/05/13 08:26:08;;;;;;;4.13;3.60;;;;;;;17.47;50.12;98833.34;6950675;28;20230;-84
2023/05/13 08:29:29;;;;;;;4.50;4.10;;;;;;;17.93;50.67;98865.69;6964828;28;20230;-84
2023/05/13 08:32:51;;;;;;;4.73;4.20;;;;;;;17.63;50.41;98875.31;6978380;28;20554;-83
2023/05/13 08:36:12;;;;;;;4.10;3.80;;;;;;;18.12;50.06;98869.78;6977401;28;20272;-83
2023/05/13 08:39:35;;;;;;;4.80;3.80;;;;;;;18.17;50.11;98869.84;6977774;28;20236;-86
2023/05/13 08:42:57;;;;;;;7.27;6.17;;;;;;;17.65;50.97;98851.34;6980976;28;20204;-83
2023/05/13 08:46:19;;;;;;;4.00;3.60;;;;;;;17.98;50.55;98841.19;6978684;28;20250;-87
2023/05/13 08:49:41;;;;;;;7.27;4.60;;;;;;;18.32;49.54;98861.06;6978044;28;20202;-84
2023/05/13 08:53:03;;;;;;;4.53;3.63;;;;;;;18.16;49.51;98872.84;6976810;28;20289;-83
2023/05/13 08:56:28;;;;;;;4.07;3.67;;;;;;;17.67;50.52;98874.56;6962579;28;20294;-82
2023/05/13 08:59:50;;;;;;;4.67;4.10;;;;;;;18.55;49.75;98867.13;6950201;28;20308;-82
2023/05/13 09:03:12;;;;;;;3.87;3.50;;;;;;;17.85;49.56;98806.09;6949321;28;20214;-81
2023/05/13 09:06:33;;;;;;;4.00;3.63;;;;;;;18.05;49.94;98873.78;6949729;28;20289;-84
2023/05/13 09:09:55;;;;;;;3.57;3.30;;;;;;;17.91;50.36;98867.00;6950045;28;20206;-84
2023/05/13 09:13:18;;;;;;;4.13;3.13;;;;;;;18.30;49.03;98858.56;6995835;28;20654;-85
2023/05/13 09:16:39;;;;;;;4.33;3.00;;;;;;;17.87;50.20;98872.13;7000538;28;20295;-86
2023/05/13 09:20:07;;;;;;;5.10;3.13;;;;;;;18.12;49.87;98880.72;7001406;28;20336;-85
2023/05/13 09:23:29;;;;;;;3.63;3.33;;;;;;;18.61;48.92;98866.09;7004188;28;20208;-85
2023/05/13 09:26:51;;;;;;;4.10;3.40;;;;;;;18.51;48.55;98803.16;7005610;28;20228;-84
2023/05/13 09:30:14;;;;;;;3.70;3.40;;;;;;;19.02;48.61;98872.81;6980374;28;20210;-82
2023/05/13 09:33:36;;;;;;;3.80;3.33;;;;;;;19.13;48.00;98860.94;6978011;28;20291;-84
2023/05/13 09:37:00;;;;;;;3.30;3.00;;;;;;;18.68;48.52;98872.19;6981317;28;20222;-82
2023/05/13 09:40:22;;;;;;;3.47;3.07;;;;;;;18.70;48.86;98863.75;6979482;28;20234;-85
2023/05/13 09:43:43;;;;;;;3.60;3.30;;;;;;;18.38;49.00;98841.78;6976926;28;20217;-84
2023/05/13 09:47:06;;;;;;;3.20;3.00;;;;;;;18.69;48.04;98882.03;6998578;28;20232;-84
2023/05/13 09:50:28;;;;;;;3.20;2.90;;;;;;;18.86;48.38;98871.03;6976822;28;20786;-84
2023/05/13 09:53:49;;;;;;;3.00;2.80;;;;;;;19.20;47.66;98873.31;6970131;28;20349;-86
2023/05/13 09:57:14;;;;;;;3.50;2.50;;;;;;;18.82;47.58;98867.16;6948544;28;20227;-84
2023/05/13 10:00:36;;;;;;;3.40;3.07;;;;;;;18.88;46.54;98853.28;6948706;28;20230;-86
2023/05/13 10:03:59;;;;;;;2.70;2.50;;;;;;;18.45;48.44;98882.56;6947662;28;20353;-86
2023/05/13 10:07:23;;;;;;;2.70;2.50;;;;;;;18.35;47.31;98809.50;6948289;28;20234;-85
2023/05/13 10:10:46;;;;;;;3.13;2.87;;;;;;;18.60;48.24;98894.50;6949243;28;20211;-84
2023/05/13 10:14:08;;;;;;;2.70;2.50;;;;;;;18.77;47.08;98872.56;6952424;28;20679;-84
2023/05/13 10:17:30;;;;;;;3.00;2.70;;;;;;;19.12;46.77;98892.06;6950293;28;20313;-84
2023/05/13 10:20:53;;;;;;;3.67;2.70;;;;;;;17.70;49.64;98860.41;6949639;28;20308;-85
2023/05/13 10:24:14;;;;;;;2.87;2.67;;;;;;;17.16;50.82;98879.38;6948514;28;20202;-85
2023/05/13 10:27:36;;;;;;;3.00;2.80;;;;;;;18.20;48.88;98871.25;6952274;28;20334;-83
2023/05/13 10:30:57;;;;;;;4.93;2.80;;;;;;;18.89;45.76;98857.69;6977700;28;20627;-82
2023/05/13 10:34:19;;;;;;;3.00;2.53;;;;;;;18.60;47.41;98860.88;6976824;28;20297;-86
2023/05/13 10:38:03;;;;;;;3.67;2.77;;;;;;;18.75;46.50;98864.63;6969289;28;20227;-86
2023/05/13 10:41:51;;;;;;;2.70;2.50;;;;;;;19.35;46.13;98869.94;6961967;28;20211;-82
2023/05/13 10:45:16;;;;;;;3.40;3.10;;;;;;;20.05;44.48;98882.22;6968023;28;20209;-84
2023/05/13 10:48:39;;;;;;;2.93;2.73;;;;;;;20.14;44.22;98866.19;6978120;28;20700;-83
2023/05/13 10:52:04;;;;;;;2.93;2.73;;;;;;;18.75;47.20;98882.94;6968905;28;20207;-83
2023/05/13 10:55:28;;;;;;;5.13;2.90;;;;;;;19.44;46.56;98879.28;6951795;28;20313;-83
2023/05/13 10:58:57;;;;;;;5.77;5.00;;;;;;;20.53;44.92;98882.03;6954001;28;20231;-83
2023/05/13 11:02:24;;;;;;;2.87;2.57;;;;;;;20.89;43.02;98880.25;6960555;28;20206;-83
2023/05/13 11:05:48;;;;;;;2.57;2.37;;;;;;;20.06;44.58;98870.25;6981658;28;20226;-81
2023/05/13 11:09:12;;;;;;;3.00;2.80;;;;;;;18.42;47.01;98823.81;6980756;28;20667;-81
2023/05/13 11:12:35;;;;;;;2.90;2.50;;;;;;;19.68;45.50;98848.59;6980467;28;20280;-81
2023/05/13 11:15:57;;;;;;;3.27;2.77;;;;;;;19.40;44.67;98859.84;6977439;28;20246;-81
2023/05/13 11:19:20;;;;;;;3.80;3.50;;;;;;;18.86;46.32;98879.22;6979746;28;20289;-84
2023/05/13 11:22:41;;;;;;;6.67;2.87;;;;;;;19.64;45.32;98869.34;6984052;28;20353;-84
2023/05/13 11:26:10;;;;;;;2.93;2.67;;;;;;;20.25;45.83;98878.84;6985882;28;20368;-83
2023/05/13 11:29:34;;;;;;;3.37;3.07;;;;;;;20.63;44.62;98867.53;6984027;28;20225;-85
2023/05/13 11:32:57;;;;;;;3.20;2.90;;;;;;;20.83;43.04;98862.97;6979065;28;20198;-83
2023/05/13 11:36:19;;;;;;;3.37;2.67;;;;;;;19.43;45.53;98848.41;6979599;28;20222;-84
2023/05/13 11:39:41;;;;;;;2.60;2.40;;;;;;;18.70;47.60;98858.28;6979111;28;20218;-83
2023/05/13 11:43:04;;;;;;;3.00;2.80;;;;;;;19.22;46.65;98875.81;6979641;28;20202;-83
2023/05/13 11:46:27;;;;;;;2.90;2.70;;;;;;;19.99;45.02;98883.28;6979101;28;20467;-83
2023/05/13 11:49:49;;;;;;;2.50;2.37;;;;;;;19.90;45.90;98879.41;6979086;28;20209;-83
2023/05/13 11:53:10;;;;;;;3.53;3.10;;;;;;;20.38;43.46;98872.88;6980208;28;20202;-84
2023/05/13 11:56:32;;;;;;;3.20;3.00;;;;;;;19.54;46.67;98884.84;6988849;28;20218;-85
2023/05/13 11:59:57;;;;;;;3.60;3.30;;;;;;;19.35;47.55;98887.13;6993444;28;20280;-86
2023/05/13 12:03:20;;;;;;;3.20;2.90;;;;;;;19.74;46.16;98874.91;6981950;28;20211;-83
2023/05/13 12:06:49;;;;;;;3.90;3.57;;;;;;;19.62;46.67;98882.47;6977377;28;20235;-84
2023/05/13 12:10:11;;;;;;;5.70;3.60;;;;;;;18.65;48.63;98891.84;6978706;28;20198;-82
2023/05/13 12:13:33;;;;;;;4.10;3.70;;;;;;;19.34;48.11;98876.47;6978125;28;20353;-84
2023/05/13 12:16:56;;;;;;;3.80;3.50;;;;;;;20.16;46.45;98877.69;6978582;28;20305;-83
2023/05/13 12:20:20;;;;;;;3.70;3.40;;;;;;;19.14;47.82;98877.06;6978800;28;20263;-83
2023/05/13 12:23:42;;;;;;;3.20;3.00;;;;;;;20.34;45.87;98869.84;6973533;28;20231;-83
2023/05/13 12:27:07;;;;;;;3.30;3.00;;;;;;;21.17;44.03;98869.63;6949855;28;20281;-84
2023/05/13 12:30:35;;;;;;;4.23;3.10;;;;;;;20.58;43.91;98856.56;6965468;28;20230;-83
2023/05/13 12:33:56;;;;;;;3.07;2.87;;;;;;;21.27;43.68;98855.94;6977663;28;20181;-83
2023/05/13 12:37:19;;;;;;;3.93;3.53;;;;;;;21.23;42.23;98874.88;6977816;28;20218;-83
2023/05/13 12:40:40;;;;;;;3.50;3.20;;;;;;;20.19;44.93;98819.66;6977720;28;20322;-82
2023/05/13 12:44:03;;;;;;;4.73;3.43;;;;;;;21.48;43.39;98863.09;6950131;28;20197;-84
2023/05/13 12:47:25;;;;;;;3.87;3.50;;;;;;;22.02;41.99;98840.28;6949749;28;20223;-83
2023/05/13 12:50:46;;;;;;;3.47;3.17;;;;;;;21.71;42.43;98860.66;6949309;28;20263;-85
2023/05/13 12:54:10;;;;;;;3.17;2.90;;;;;;;20.13;44.52;98859.06;6949974;28;20295;-82
2023/05/13 12:57:32;;;;;;;3.27;2.97;;;;;;;20.95;43.56;98843.53;6949752;28;20226;-84
2023/05/13 13:00:53;;;;;;;7.27;3.90;;;;;;;21.66;41.96;98887.25;6949920;28;20388;-84
2023/05/13 13:04:17;;;;;;;3.53;3.23;;;;;;;20.58;44.75;98883.94;6949453;28;20231;-83
2023/05/13 13:07:42;;;;;;;4.43;3.53;;;;;;;20.08;46.00;98861.75;6948067;28;20249;-84
2023/05/13 13:11:05;;;;;;;3.33;3.00;;;;;;;19.46;45.64;98842.41;6949071;28;20210;-83
2023/05/13 13:14:27;;;;;;;5.93;4.60;;;;;;;19.80;46.66;98882.06;6948781;28;20269;-83
2023/05/13 13:17:48;;;;;;;4.47;3.07;;;;;;;20.55;45.03;98882.56;6952482;28;20253;-84
2023/05/13 13:21:10;;;;;;;3.87;3.57;;;;;;;18.86;46.10;98778.16;6976216;28;20230;-83
2023/05/13 13:24:32;;;;;;;3.97;3.57;;;;;;;20.42;44.57;98877.56;6976290;28;20202;-83
2023/05/13 13:27:55;;;;;;;3.80;3.50;;;;;;;20.49;44.51;98889.13;6977188;28;20242;-82
2023/05/13 13:31:16;;;;;;;3.40;3.10;;;;;;;20.60;44.53;98882.59;6976246;28;20221;-83
2023/05/13 13:34:38;;;;;;;4.37;3.93;;;;;;;20.12;45.77;98860.16;6975976;28;20297;-84
2023/05/13 13:37:59;;;;;;;3.53;3.20;;;;;;;20.44;44.81;98869.06;6976279;28;20313;-83
2023/05/13 13:41:24;;;;;;;3.23;2.80;;;;;;;18.93;48.40;98868.91;6976254;28;20777;-83
2023/05/13 13:44:47;;;;;;;4.23;3.33;;;;;;;18.99;49.21;98867.91;6975507;28;20301;-84
2023/05/13 13:48:08;;;;;;;3.60;3.30;;;;;;;19.07;47.36;98769.03;6975518;28;20214;-83
2023/05/13 13:51:30;;;;;;;6.03;3.53;;;;;;;19.55;46.85;98821.69;6975812;28;20676;-83
2023/05/13 13:54:52;;;;;;;4.03;3.73;;;;;;;19.19;48.17;98873.56;6975389;28;20209;-83
2023/05/13 13:58:14;;;;;;;6.57;4.00;;;;;;;18.90;49.32;98858.50;6976573;28;20327;-82
2023/05/13 14:01:38;;;;;;;4.30;3.90;;;;;;;19.40;47.95;98867.25;6975989;28;20225;-84
2023/05/13 14:05:20;;;;;;;4.20;3.80;;;;;;;19.58;47.43;98875.06;6975351;28;20790;-84
2023/05/13 14:08:41;;;;;;;4.50;4.03;;;;;;;19.41;47.57;98877.09;6989883;28;20193;-83
2023/05/13 14:12:03;;;;;;;5.33;4.23;;;;;;;18.88;48.44;98868.88;6982452;28;20213;-83
2023/05/13 14:15:27;;;;;;;5.33;4.80;;;;;;;19.36;47.93;98866.94;6978024;28;20230;-84
2023/05/13 14:18:50;;;;;;;4.90;4.50;;;;;;;19.34;47.23;98844.47;6977620;28;20263;-83
2023/05/13 14:22:11;;;;;;;4.37;3.97;;;;;;;20.07;46.28;98843.69;6977043;28;20268;-85
2023/05/13 14:25:33;;;;;;;4.33;3.90;;;;;;;20.25;45.70;98807.66;6976901;28;20268;-84
2023/05/13 14:28:55;;;;;;;7.23;4.77;;;;;;;20.39;45.98;98842.50;6977273;28;20252;-83
2023/05/13 14:32:17;;;;;;;4.70;4.30;;;;;;;19.56;47.12;98826.06;6976929;28;20214;-84
2023/05/13 14:35:40;;;;;;;5.07;4.57;;;;;;;19.63;47.09;98842.28;6982559;28;20385;-83
2023/05/13 14:39:01;;;;;;;4.50;4.20;;;;;;;20.14;47.02;98841.53;6982419;28;20284;-83
2023/05/13 14:42:23;;;;;;;4.67;4.27;;;;;;;20.81;44.54;98813.03;6982215;28;20227;-82
2023/05/13 14:45:44;;;;;;;4.33;3.97;;;;;;;21.64;43.47;98851.00;6982010;28;20242;-83
2023/05/13 14:49:06;;;;;;;5.30;4.40;;;;;;;20.78;45.54;98832.78;6982440;28;20201;-83
2023/05/13 14:52:29;;;;;;;5.27;4.77;;;;;;;21.57;43.41;98837.59;6981431;28;20199;-84
2023/05/13 14:55:51;;;;;;;5.67;4.73;;;;;;;21.27;43.13;98810.16;6981313;28;20272;-82
2023/05/13 14:59:13;;;;;;;4.40;4.00;;;;;;;21.93;42.13;98800.78;6981944;28;20636;-82
2023/05/13 15:02:34;;;;;;;5.13;4.70;;;;;;;21.16;42.36;98807.66;6980422;28;20250;-84
2023/05/13 15:05:57;;;;;;;5.20;3.83;;;;;;;19.45;47.45;98826.28;6979923;28;20316;-83
2023/05/13 15:09:20;;;;;;;5.13;4.63;;;;;;;20.65;44.15;98786.72;6980649;28;20190;-84
2023/05/13 15:12:41;;;;;;;5.63;4.43;;;;;;;20.50;44.60;98781.19;6979789;28;20277;-83
2023/05/13 15:16:03;;;;;;;4.10;3.73;;;;;;;20.23;45.17;98790.66;6979821;28;20228;-83
2023/05/13 15:19:24;;;;;;;4.43;4.03;;;;;;;21.05;43.29;98814.22;6980174;28;20233;-82
2023/05/13 15:22:46;;;;;;;3.77;3.47;;;;;;;20.58;44.19;98799.81;6978362;28;20209;-82
2023/05/13 15:26:09;;;;;;;4.00;3.70;;;;;;;21.01;43.53;98812.31;6952032;28;20357;-83
2023/05/13 15:29:30;;;;;;;4.10;3.80;;;;;;;20.44;45.43;98800.59;6953005;28;20681;-83
2023/05/13 15:32:52;;;;;;;4.20;3.80;;;;;;;19.16;46.34;98691.75;6952310;28;20277;-82
2023/05/13 15:36:13;;;;;;;4.30;3.90;;;;;;;20.36;44.73;98801.97;6952101;28;20296;-83
2023/05/13 15:39:35;;;;;;;4.37;3.97;;;;;;;19.56;46.31;98716.66;6952792;28;20273;-82
2023/05/13 15:42:58;;;;;;;4.53;4.13;;;;;;;20.45;44.70;98744.75;6951948;28;20211;-84
2023/05/13 15:46:20;;;;;;;4.50;4.07;;;;;;;20.25;44.91;98797.53;6952437;28;20227;-83
2023/05/13 15:49:42;;;;;;;4.27;3.87;;;;;;;19.64;46.93;98792.75;6951780;28;20212;-86
2023/05/13 15:53:03;;;;;;;5.17;4.50;;;;;;;20.53;44.83;98794.34;6951164;28;20547;-83